createdAt,value
2023-02-06T00:02:20.062Z,4.65
2023-02-06T00:32:24.206Z,4.62
2023-02-06T01:02:28.288Z,4.51
2023-02-06T01:32:32.350Z,4.15
2023-02-06T02:02:38.778Z,4.15
2023-02-06T02:33:00.452Z,4.08
2023-02-06T03:03:06.294Z,3.93
2023-02-06T03:33:12.008Z,3.64
2023-02-06T04:03:16.695Z,3.07
2023-02-06T04:33:20.774Z,2.47
2023-02-06T05:03:25.326Z,2.02
2023-02-06T05:33:29.836Z,1.58
2023-02-06T06:03:34.415Z,1.57
2023-02-06T06:33:38.937Z,1.40
2023-02-06T07:03:44.706Z,1.03
2023-02-06T07:33:49.165Z,1.19
2023-02-06T08:03:53.656Z,1.57
2023-02-06T08:33:57.667Z,2.08
2023-02-06T09:04:06.307Z,3.11
2023-02-06T09:34:12.816Z,8.47
2023-02-06T10:04:34.614Z,6.98
2023-02-06T10:34:58.778Z,18.39
2023-02-06T11:05:06.598Z,20.87
2023-02-06T11:35:25.050Z,19.70
2023-02-06T12:05:36.330Z,19.71
2023-02-06T12:35:46.635Z,19.81
2023-02-06T13:05:54.410Z,9.09
2023-02-06T13:36:01.621Z,7.78
2023-02-06T14:06:14.613Z,9.04
2023-02-06T14:36:29.668Z,7.70
2023-02-06T15:06:37.675Z,7.77
2023-02-06T15:36:42.157Z,6.49
2023-02-06T16:06:47.052Z,5.70
2023-02-06T16:36:51.283Z,4.82
2023-02-06T17:06:55.349Z,4.11
2023-02-06T17:37:00.225Z,3.44
2023-02-06T18:07:05.356Z,3.02
2023-02-06T18:37:10.074Z,2.56
2023-02-06T19:07:15.437Z,2.17
2023-02-06T19:37:19.640Z,1.92
2023-02-06T20:07:24.505Z,1.64
2023-02-06T20:37:28.808Z,1.42
2023-02-06T21:07:33.325Z,1.10
2023-02-06T21:37:39.609Z,1.20
2023-02-06T22:07:43.994Z,1.09
2023-02-06T22:37:48.148Z,1.12
2023-02-06T23:07:52.014Z,0.95
2023-02-06T23:37:56.150Z,1.00
